sensor_id;sensor_type;location;lat;lon;timestamp;P1;durP1;ratioP1;P2;durP2;ratioP2
21309;SDS011;10814;51.722;8.772;2024-03-23T00:51:26;10.25;;;3.35;;
21309;SDS011;10814;51.722;8.772;2024-03-23T00:56:18;8.93;;;3.65;;
21309;SDS011;10814;51.722;8.772;2024-03-23T00:58:43;12.18;;;3.75;;
21309;SDS011;10814;51.722;8.772;2024-03-23T01:01:09;10.30;;;3.30;;
21309;SDS011;10814;51.722;8.772;2024-03-23T01:03:35;7.28;;;3.20;;
21309;SDS011;10814;51.722;8.772;2024-03-23T01:06:01;10.55;;;3.20;;
21309;SDS011;10814;51.722;8.772;2024-03-23T01:08:27;11.40;;;3.63;;
21309;SDS011;10814;51.722;8.772;2024-03-23T01:13:21;8.95;;;2.67;;
21309;SDS011;10814;51.722;8.772;2024-03-23T01:15:48;8.85;;;3.30;;
21309;SDS011;10814;51.722;8.772;2024-03-23T01:18:14;10.82;;;3.08;;
21309;SDS011;10814;51.722;8.772;2024-03-23T01:20:40;10.10;;;3.17;;
21309;SDS011;10814;51.722;8.772;2024-03-23T01:23:05;6.43;;;2.67;;
21309;SDS011;10814;51.722;8.772;2024-03-23T01:25:31;7.65;;;2.63;;
21309;SDS011;10814;51.722;8.772;2024-03-23T01:27:57;10.35;;;2.90;;
21309;SDS011;10814;51.722;8.772;2024-03-23T01:30:22;12.90;;;2.72;;
21309;SDS011;10814;51.722;8.772;2024-03-23T01:32:48;9.30;;;3.33;;
21309;SDS011;10814;51.722;8.772;2024-03-23T01:35:13;8.82;;;2.92;;
21309;SDS011;10814;51.722;8.772;2024-03-23T01:37:39;9.23;;;3.20;;
21309;SDS011;10814;51.722;8.772;2024-03-23T01:40:04;7.18;;;2.70;;
21309;SDS011;10814;51.722;8.772;2024-03-23T01:42:31;8.35;;;3.17;;
21309;SDS011;10814;51.722;8.772;2024-03-23T01:44:56;7.43;;;3.47;;
21309;SDS011;10814;51.722;8.772;2024-03-23T01:47:22;8.02;;;3.28;;
21309;SDS011;10814;51.722;8.772;2024-03-23T01:49:48;8.63;;;3.50;;
21309;SDS011;10814;51.722;8.772;2024-03-23T01:52:13;8.93;;;3.22;;
21309;SDS011;10814;51.722;8.772;2024-03-23T01:54:40;9.20;;;3.55;;
21309;SDS011;10814;51.722;8.772;2024-03-23T01:57:06;9.98;;;3.42;;
21309;SDS011;10814;51.722;8.772;2024-03-23T01:59:32;9.13;;;3.55;;
21309;SDS011;10814;51.722;8.772;2024-03-23T02:01:57;9.07;;;3.70;;
21309;SDS011;10814;51.722;8.772;2024-03-23T02:04:23;10.02;;;3.45;;
21309;SDS011;10814;51.722;8.772;2024-03-23T02:06:48;7.70;;;3.30;;
21309;SDS011;10814;51.722;8.772;2024-03-23T02:09:14;10.90;;;4.03;;
21309;SDS011;10814;51.722;8.772;2024-03-23T02:11:40;9.88;;;4.32;;
21309;SDS011;10814;51.722;8.772;2024-03-23T02:14:06;10.95;;;4.25;;
21309;SDS011;10814;51.722;8.772;2024-03-23T02:16:32;11.73;;;4.50;;
21309;SDS011;10814;51.722;8.772;2024-03-23T02:18:58;11.80;;;4.70;;
21309;SDS011;10814;51.722;8.772;2024-03-23T02:21:24;11.73;;;4.53;;
21309;SDS011;10814;51.722;8.772;2024-03-23T02:23:49;11.73;;;5.28;;
21309;SDS011;10814;51.722;8.772;2024-03-23T02:26:15;10.00;;;4.50;;
21309;SDS011;10814;51.722;8.772;2024-03-23T02:28:46;12.65;;;4.20;;
21309;SDS011;10814;51.722;8.772;2024-03-23T02:31:12;13.43;;;4.70;;
21309;SDS011;10814;51.722;8.772;2024-03-23T02:33:40;10.40;;;4.30;;
21309;SDS011;10814;51.722;8.772;2024-03-23T02:36:06;14.20;;;4.55;;
21309;SDS011;10814;51.722;8.772;2024-03-23T02:38:32;11.73;;;4.43;;
21309;SDS011;10814;51.722;8.772;2024-03-23T02:41:02;10.95;;;4.55;;
21309;SDS011;10814;51.722;8.772;2024-03-23T02:43:29;12.05;;;4.15;;
21309;SDS011;10814;51.722;8.772;2024-03-23T02:45:54;10.50;;;4.88;;
21309;SDS011;10814;51.722;8.772;2024-03-23T02:48:20;10.48;;;4.00;;
21309;SDS011;10814;51.722;8.772;2024-03-23T02:50:45;13.77;;;4.43;;
21309;SDS011;10814;51.722;8.772;2024-03-23T02:53:11;10.98;;;4.15;;
21309;SDS011;10814;51.722;8.772;2024-03-23T02:55:36;14.90;;;4.18;;
21309;SDS011;10814;51.722;8.772;2024-03-23T02:58:02;10.07;;;3.88;;
21309;SDS011;10814;51.722;8.772;2024-03-23T03:00:28;12.10;;;3.45;;
21309;SDS011;10814;51.722;8.772;2024-03-23T03:02:54;12.10;;;4.03;;
21309;SDS011;10814;51.722;8.772;2024-03-23T03:05:20;10.52;;;3.30;;
21309;SDS011;10814;51.722;8.772;2024-03-23T03:07:46;9.02;;;3.25;;
21309;SDS011;10814;51.722;8.772;2024-03-23T03:10:11;10.77;;;3.65;;
21309;SDS011;10814;51.722;8.772;2024-03-23T03:12:37;11.45;;;3.53;;
21309;SDS011;10814;51.722;8.772;2024-03-23T03:15:03;8.82;;;3.10;;
21309;SDS011;10814;51.722;8.772;2024-03-23T03:17:30;8.10;;;2.92;;
21309;SDS011;10814;51.722;8.772;2024-03-23T03:19:55;9.35;;;2.33;;
21309;SDS011;10814;51.722;8.772;2024-03-23T03:22:22;6.00;;;2.45;;
21309;SDS011;10814;51.722;8.772;2024-03-23T03:24:48;6.85;;;2.35;;
21309;SDS011;10814;51.722;8.772;2024-03-23T03:27:13;10.55;;;2.67;;
21309;SDS011;10814;51.722;8.772;2024-03-23T03:29:39;8.00;;;2.30;;
21309;SDS011;10814;51.722;8.772;2024-03-23T03:32:05;9.35;;;2.40;;
21309;SDS011;10814;51.722;8.772;2024-03-23T03:34:31;5.65;;;1.88;;
21309;SDS011;10814;51.722;8.772;2024-03-23T03:36:57;6.75;;;2.13;;
21309;SDS011;10814;51.722;8.772;2024-03-23T03:39:22;6.90;;;1.83;;
21309;SDS011;10814;51.722;8.772;2024-03-23T03:41:49;5.03;;;2.17;;
21309;SDS011;10814;51.722;8.772;2024-03-23T03:44:15;6.07;;;2.05;;
21309;SDS011;10814;51.722;8.772;2024-03-23T03:46:41;6.50;;;2.15;;
21309;SDS011;10814;51.722;8.772;2024-03-23T03:49:08;7.32;;;2.33;;
21309;SDS011;10814;51.722;8.772;2024-03-23T03:51:33;8.20;;;2.38;;
21309;SDS011;10814;51.722;8.772;2024-03-23T03:53:59;7.22;;;2.33;;
21309;SDS011;10814;51.722;8.772;2024-03-23T03:56:25;8.32;;;2.40;;
21309;SDS011;10814;51.722;8.772;2024-03-23T03:58:51;8.88;;;2.45;;
21309;SDS011;10814;51.722;8.772;2024-03-23T04:01:16;6.38;;;2.55;;
21309;SDS011;10814;51.722;8.772;2024-03-23T04:03:43;6.88;;;2.50;;
21309;SDS011;10814;51.722;8.772;2024-03-23T04:06:11;6.25;;;2.72;;
21309;SDS011;10814;51.722;8.772;2024-03-23T04:08:37;7.15;;;2.40;;
21309;SDS011;10814;51.722;8.772;2024-03-23T04:11:03;6.03;;;2.13;;
21309;SDS011;10814;51.722;8.772;2024-03-23T04:13:29;8.07;;;2.10;;
21309;SDS011;10814;51.722;8.772;2024-03-23T04:15:54;6.70;;;2.20;;
21309;SDS011;10814;51.722;8.772;2024-03-23T04:18:20;5.10;;;2.00;;
21309;SDS011;10814;51.722;8.772;2024-03-23T04:20:46;5.28;;;1.88;;
21309;SDS011;10814;51.722;8.772;2024-03-23T04:23:13;7.03;;;1.92;;
21309;SDS011;10814;51.722;8.772;2024-03-23T04:25:39;5.75;;;1.83;;
21309;SDS011;10814;51.722;8.772;2024-03-23T04:28:04;6.95;;;2.03;;
21309;SDS011;10814;51.722;8.772;2024-03-23T04:30:30;7.03;;;2.05;;
21309;SDS011;10814;51.722;8.772;2024-03-23T04:32:57;7.32;;;1.90;;
21309;SDS011;10814;51.722;8.772;2024-03-23T04:35:23;6.53;;;1.92;;
21309;SDS011;10814;51.722;8.772;2024-03-23T04:37:52;6.20;;;1.80;;
21309;SDS011;10814;51.722;8.772;2024-03-23T04:40:19;5.65;;;2.03;;
21309;SDS011;10814;51.722;8.772;2024-03-23T04:42:44;5.97;;;1.98;;
21309;SDS011;10814;51.722;8.772;2024-03-23T04:45:10;7.00;;;2.10;;
21309;SDS011;10814;51.722;8.772;2024-03-23T04:47:36;6.65;;;1.73;;
21309;SDS011;10814;51.722;8.772;2024-03-23T04:50:03;7.18;;;1.63;;
21309;SDS011;10814;51.722;8.772;2024-03-23T04:52:32;5.35;;;2.00;;
21309;SDS011;10814;51.722;8.772;2024-03-23T04:54:57;6.28;;;1.65;;
21309;SDS011;10814;51.722;8.772;2024-03-23T04:57:27;7.80;;;1.67;;
21309;SDS011;10814;51.722;8.772;2024-03-23T04:59:58;5.72;;;1.95;;
21309;SDS011;10814;51.722;8.772;2024-03-23T05:02:26;6.70;;;1.90;;
21309;SDS011;10814;51.722;8.772;2024-03-23T05:04:52;6.18;;;2.10;;
21309;SDS011;10814;51.722;8.772;2024-03-23T05:07:17;7.20;;;1.92;;
21309;SDS011;10814;51.722;8.772;2024-03-23T05:09:43;7.55;;;2.20;;
21309;SDS011;10814;51.722;8.772;2024-03-23T05:12:12;7.72;;;2.25;;
21309;SDS011;10814;51.722;8.772;2024-03-23T05:14:37;5.97;;;1.90;;
21309;SDS011;10814;51.722;8.772;2024-03-23T05:17:03;6.57;;;1.95;;
21309;SDS011;10814;51.722;8.772;2024-03-23T05:19:29;8.65;;;2.03;;
21309;SDS011;10814;51.722;8.772;2024-03-23T05:22:00;7.75;;;1.98;;
21309;SDS011;10814;51.722;8.772;2024-03-23T05:24:25;9.70;;;2.70;;
21309;SDS011;10814;51.722;8.772;2024-03-23T05:26:51;6.30;;;2.20;;
21309;SDS011;10814;51.722;8.772;2024-03-23T05:29:27;8.68;;;2.83;;
21309;SDS011;10814;51.722;8.772;2024-03-23T05:31:54;7.32;;;2.47;;
21309;SDS011;10814;51.722;8.772;2024-03-23T05:34:22;5.95;;;2.17;;
21309;SDS011;10814;51.722;8.772;2024-03-23T05:36:47;6.65;;;1.95;;
21309;SDS011;10814;51.722;8.772;2024-03-23T05:39:19;7.57;;;2.20;;
21309;SDS011;10814;51.722;8.772;2024-03-23T05:41:49;6.05;;;1.77;;
21309;SDS011;10814;51.722;8.772;2024-03-23T05:44:15;8.75;;;1.85;;
21309;SDS011;10814;51.722;8.772;2024-03-23T05:46:43;7.53;;;1.98;;
21309;SDS011;10814;51.722;8.772;2024-03-23T05:49:13;9.07;;;2.08;;
21309;SDS011;10814;51.722;8.772;2024-03-23T05:51:42;10.23;;;2.22;;
21309;SDS011;10814;51.722;8.772;2024-03-23T05:54:11;5.82;;;1.60;;
21309;SDS011;10814;51.722;8.772;2024-03-23T05:56:36;8.63;;;2.33;;
21309;SDS011;10814;51.722;8.772;2024-03-23T05:59:02;9.10;;;2.03;;
21309;SDS011;10814;51.722;8.772;2024-03-23T06:01:28;9.75;;;2.20;;
21309;SDS011;10814;51.722;8.772;2024-03-23T06:03:59;6.78;;;1.98;;
21309;SDS011;10814;51.722;8.772;2024-03-23T06:06:26;6.63;;;1.77;;
21309;SDS011;10814;51.722;8.772;2024-03-23T06:08:52;8.95;;;2.75;;
21309;SDS011;10814;51.722;8.772;2024-03-23T06:11:18;8.68;;;2.40;;
21309;SDS011;10814;51.722;8.772;2024-03-23T06:13:53;9.35;;;2.05;;
21309;SDS011;10814;51.722;8.772;2024-03-23T06:16:25;9.10;;;2.08;;
21309;SDS011;10814;51.722;8.772;2024-03-23T06:18:53;7.72;;;1.95;;
21309;SDS011;10814;51.722;8.772;2024-03-23T06:21:34;11.13;;;3.47;;
21309;SDS011;10814;51.722;8.772;2024-03-23T06:24:07;8.10;;;2.30;;
21309;SDS011;10814;51.722;8.772;2024-03-23T06:26:33;10.93;;;2.45;;
21309;SDS011;10814;51.722;8.772;2024-03-23T06:29:05;10.02;;;2.63;;
21309;SDS011;10814;51.722;8.772;2024-03-23T06:31:43;8.98;;;2.28;;
21309;SDS011;10814;51.722;8.772;2024-03-23T06:34:12;11.45;;;2.55;;
21309;SDS011;10814;51.722;8.772;2024-03-23T06:36:41;11.68;;;2.70;;
21309;SDS011;10814;51.722;8.772;2024-03-23T06:39:14;9.02;;;2.83;;
21309;SDS011;10814;51.722;8.772;2024-03-23T06:41:54;11.80;;;2.65;;
21309;SDS011;10814;51.722;8.772;2024-03-23T06:44:23;10.70;;;2.60;;
21309;SDS011;10814;51.722;8.772;2024-03-23T06:46:58;10.23;;;2.53;;
21309;SDS011;10814;51.722;8.772;2024-03-23T06:49:32;6.90;;;2.33;;
21309;SDS011;10814;51.722;8.772;2024-03-23T06:52:04;6.57;;;2.47;;
21309;SDS011;10814;51.722;8.772;2024-03-23T06:54:33;10.25;;;2.60;;
21309;SDS011;10814;51.722;8.772;2024-03-23T06:57:06;8.88;;;2.83;;
21309;SDS011;10814;51.722;8.772;2024-03-23T06:59:40;6.50;;;2.45;;
21309;SDS011;10814;51.722;8.772;2024-03-23T07:02:16;7.60;;;2.60;;
21309;SDS011;10814;51.722;8.772;2024-03-23T07:04:45;10.07;;;2.35;;
21309;SDS011;10814;51.722;8.772;2024-03-23T07:07:13;8.02;;;2.10;;
21309;SDS011;10814;51.722;8.772;2024-03-23T07:09:48;12.70;;;2.72;;
21309;SDS011;10814;51.722;8.772;2024-03-23T07:12:14;11.43;;;2.05;;
21309;SDS011;10814;51.722;8.772;2024-03-23T07:14:42;6.28;;;2.45;;
21309;SDS011;10814;51.722;8.772;2024-03-23T07:17:13;8.55;;;2.13;;
21309;SDS011;10814;51.722;8.772;2024-03-23T07:19:39;8.20;;;2.72;;
21309;SDS011;10814;51.722;8.772;2024-03-23T07:22:04;9.60;;;2.38;;
21309;SDS011;10814;51.722;8.772;2024-03-23T07:24:40;11.63;;;3.03;;
21309;SDS011;10814;51.722;8.772;2024-03-23T07:27:26;8.77;;;3.17;;
21309;SDS011;10814;51.722;8.772;2024-03-23T07:29:57;15.93;;;4.03;;
21309;SDS011;10814;51.722;8.772;2024-03-23T07:32:30;14.07;;;4.13;;
21309;SDS011;10814;51.722;8.772;2024-03-23T07:34:55;14.38;;;4.63;;
21309;SDS011;10814;51.722;8.772;2024-03-23T07:37:24;12.15;;;4.43;;
21309;SDS011;10814;51.722;8.772;2024-03-23T07:39:57;16.95;;;5.88;;
21309;SDS011;10814;51.722;8.772;2024-03-23T07:45:12;11.38;;;5.13;;
21309;SDS011;10814;51.722;8.772;2024-03-23T07:47:50;13.75;;;5.65;;
21309;SDS011;10814;51.722;8.772;2024-03-23T07:50:16;15.77;;;6.03;;
21309;SDS011;10814;51.722;8.772;2024-03-23T07:52:53;16.30;;;6.35;;
21309;SDS011;10814;51.722;8.772;2024-03-23T07:55:18;17.67;;;6.45;;
21309;SDS011;10814;51.722;8.772;2024-03-23T07:57:50;13.60;;;6.80;;
21309;SDS011;10814;51.722;8.772;2024-03-23T08:00:16;15.07;;;7.80;;
21309;SDS011;10814;51.722;8.772;2024-03-23T08:02:50;15.90;;;8.23;;
21309;SDS011;10814;51.722;8.772;2024-03-23T08:05:16;23.67;;;8.65;;
21309;SDS011;10814;51.722;8.772;2024-03-23T08:07:42;19.85;;;9.05;;
21309;SDS011;10814;51.722;8.772;2024-03-23T08:10:25;17.88;;;10.10;;
21309;SDS011;10814;51.722;8.772;2024-03-23T08:12:59;21.67;;;10.98;;
21309;SDS011;10814;51.722;8.772;2024-03-23T08:15:49;23.85;;;10.85;;
21309;SDS011;10814;51.722;8.772;2024-03-23T08:18:14;18.00;;;10.82;;
21309;SDS011;10814;51.722;8.772;2024-03-23T08:20:42;18.70;;;10.73;;
21309;SDS011;10814;51.722;8.772;2024-03-23T08:23:34;20.23;;;11.20;;
21309;SDS011;10814;51.722;8.772;2024-03-23T08:26:10;19.52;;;11.43;;
21309;SDS011;10814;51.722;8.772;2024-03-23T08:28:39;20.13;;;10.88;;
21309;SDS011;10814;51.722;8.772;2024-03-23T08:31:13;22.00;;;10.77;;
21309;SDS011;10814;51.722;8.772;2024-03-23T08:33:42;20.23;;;10.68;;
21309;SDS011;10814;51.722;8.772;2024-03-23T08:36:11;20.38;;;10.52;;
21309;SDS011;10814;51.722;8.772;2024-03-23T08:38:37;19.30;;;11.20;;
21309;SDS011;10814;51.722;8.772;2024-03-23T08:41:10;20.35;;;11.15;;
21309;SDS011;10814;51.722;8.772;2024-03-23T08:43:37;19.83;;;10.77;;
21309;SDS011;10814;51.722;8.772;2024-03-23T08:46:06;21.27;;;10.13;;
21309;SDS011;10814;51.722;8.772;2024-03-23T08:51:14;19.08;;;10.57;;
21309;SDS011;10814;51.722;8.772;2024-03-23T08:53:45;21.30;;;11.18;;
21309;SDS011;10814;51.722;8.772;2024-03-23T08:56:11;23.10;;;11.23;;
21309;SDS011;10814;51.722;8.772;2024-03-23T08:58:37;25.90;;;12.43;;
21309;SDS011;10814;51.722;8.772;2024-03-23T09:01:07;25.30;;;11.82;;
21309;SDS011;10814;51.722;8.772;2024-03-23T09:03:40;19.05;;;10.70;;
21309;SDS011;10814;51.722;8.772;2024-03-23T09:06:09;19.90;;;10.93;;
21309;SDS011;10814;51.722;8.772;2024-03-23T09:08:39;19.50;;;11.25;;
21309;SDS011;10814;51.722;8.772;2024-03-23T09:11:09;17.40;;;10.38;;
21309;SDS011;10814;51.722;8.772;2024-03-23T09:13:37;17.88;;;9.45;;
21309;SDS011;10814;51.722;8.772;2024-03-23T09:16:04;17.35;;;9.75;;
21309;SDS011;10814;51.722;8.772;2024-03-23T09:18:34;16.42;;;8.80;;
21309;SDS011;10814;51.722;8.772;2024-03-23T09:21:04;20.90;;;10.05;;
21309;SDS011;10814;51.722;8.772;2024-03-23T09:23:36;17.65;;;9.57;;
21309;SDS011;10814;51.722;8.772;2024-03-23T09:26:04;19.95;;;9.07;;
21309;SDS011;10814;51.722;8.772;2024-03-23T09:28:32;15.80;;;9.43;;
21309;SDS011;10814;51.722;8.772;2024-03-23T09:31:04;13.90;;;8.13;;
21309;SDS011;10814;51.722;8.772;2024-03-23T09:33:31;17.50;;;8.35;;
21309;SDS011;10814;51.722;8.772;2024-03-23T09:36:03;17.00;;;7.93;;
21309;SDS011;10814;51.722;8.772;2024-03-23T09:38:34;14.05;;;7.05;;
21309;SDS011;10814;51.722;8.772;2024-03-23T09:41:48;19.40;;;6.93;;
21309;SDS011;10814;51.722;8.772;2024-03-23T09:44:24;15.55;;;6.97;;
21309;SDS011;10814;51.722;8.772;2024-03-23T09:46:56;13.52;;;6.32;;
21309;SDS011;10814;51.722;8.772;2024-03-23T09:49:22;15.00;;;6.57;;
21309;SDS011;10814;51.722;8.772;2024-03-23T09:51:47;15.68;;;7.15;;
21309;SDS011;10814;51.722;8.772;2024-03-23T09:54:13;15.10;;;6.82;;
21309;SDS011;10814;51.722;8.772;2024-03-23T09:56:48;12.55;;;6.28;;
21309;SDS011;10814;51.722;8.772;2024-03-23T09:59:14;21.13;;;7.57;;
21309;SDS011;10814;51.722;8.772;2024-03-23T10:01:45;12.82;;;6.75;;
21309;SDS011;10814;51.722;8.772;2024-03-23T10:04:12;15.48;;;7.60;;
21309;SDS011;10814;51.722;8.772;2024-03-23T10:07:09;13.25;;;7.03;;
21309;SDS011;10814;51.722;8.772;2024-03-23T10:09:47;15.40;;;5.63;;
21309;SDS011;10814;51.722;8.772;2024-03-23T10:12:17;13.32;;;5.43;;
21309;SDS011;10814;51.722;8.772;2024-03-23T10:14:47;13.35;;;4.45;;
21309;SDS011;10814;51.722;8.772;2024-03-23T10:17:16;10.70;;;4.18;;
21309;SDS011;10814;51.722;8.772;2024-03-23T10:19:49;12.38;;;4.47;;
21309;SDS011;10814;51.722;8.772;2024-03-23T10:22:22;12.45;;;4.55;;
21309;SDS011;10814;51.722;8.772;2024-03-23T10:25:07;10.65;;;4.95;;
21309;SDS011;10814;51.722;8.772;2024-03-23T10:27:34;10.02;;;4.78;;
21309;SDS011;10814;51.722;8.772;2024-03-23T10:30:15;11.25;;;4.45;;
21309;SDS011;10814;51.722;8.772;2024-03-23T10:32:41;8.82;;;3.70;;
21309;SDS011;10814;51.722;8.772;2024-03-23T10:37:47;9.30;;;3.20;;
21309;SDS011;10814;51.722;8.772;2024-03-23T10:40:16;10.10;;;3.65;;
21309;SDS011;10814;51.722;8.772;2024-03-23T10:42:51;10.70;;;3.65;;
21309;SDS011;10814;51.722;8.772;2024-03-23T10:45:25;12.48;;;4.28;;
21309;SDS011;10814;51.722;8.772;2024-03-23T10:47:53;12.93;;;4.65;;
21309;SDS011;10814;51.722;8.772;2024-03-23T10:50:22;9.57;;;3.70;;
21309;SDS011;10814;51.722;8.772;2024-03-23T10:52:48;7.97;;;2.40;;
21309;SDS011;10814;51.722;8.772;2024-03-23T10:55:15;3.53;;;1.25;;
21309;SDS011;10814;51.722;8.772;2024-03-23T11:00:19;4.53;;;1.20;;
21309;SDS011;10814;51.722;8.772;2024-03-23T11:02:47;3.35;;;1.23;;
21309;SDS011;10814;51.722;8.772;2024-03-23T11:07:51;2.53;;;1.00;;
21309;SDS011;10814;51.722;8.772;2024-03-23T11:12:54;2.33;;;0.70;;
21309;SDS011;10814;51.722;8.772;2024-03-23T11:15:23;2.85;;;0.75;;
21309;SDS011;10814;51.722;8.772;2024-03-23T11:18:23;4.43;;;0.70;;
21309;SDS011;10814;51.722;8.772;2024-03-23T11:20:47;1.80;;;0.52;;
21309;SDS011;10814;51.722;8.772;2024-03-23T11:23:28;3.20;;;0.68;;
21309;SDS011;10814;51.722;8.772;2024-03-23T11:25:53;2.78;;;1.08;;
21309;SDS011;10814;51.722;8.772;2024-03-23T11:28:19;4.30;;;1.27;;
21309;SDS011;10814;51.722;8.772;2024-03-23T11:30:45;3.00;;;1.20;;
21309;SDS011;10814;51.722;8.772;2024-03-23T11:33:11;2.85;;;0.90;;
21309;SDS011;10814;51.722;8.772;2024-03-23T11:35:38;3.42;;;1.30;;
21309;SDS011;10814;51.722;8.772;2024-03-23T11:38:11;4.40;;;1.25;;
21309;SDS011;10814;51.722;8.772;2024-03-23T11:40:42;2.92;;;1.30;;
21309;SDS011;10814;51.722;8.772;2024-03-23T11:43:09;3.75;;;1.45;;
21309;SDS011;10814;51.722;8.772;2024-03-23T11:45:38;2.28;;;1.10;;
21309;SDS011;10814;51.722;8.772;2024-03-23T11:50:33;4.68;;;1.88;;
21309;SDS011;10814;51.722;8.772;2024-03-23T11:53:12;6.63;;;2.30;;
21309;SDS011;10814;51.722;8.772;2024-03-23T11:55:41;4.70;;;2.00;;
21309;SDS011;10814;51.722;8.772;2024-03-23T11:58:11;6.47;;;2.92;;
21309;SDS011;10814;51.722;8.772;2024-03-23T12:00:37;6.43;;;2.92;;
21309;SDS011;10814;51.722;8.772;2024-03-23T12:03:03;4.68;;;2.92;;
21309;SDS011;10814;51.722;8.772;2024-03-23T12:05:30;7.43;;;3.15;;
21309;SDS011;10814;51.722;8.772;2024-03-23T12:10:47;7.07;;;3.13;;
21309;SDS011;10814;51.722;8.772;2024-03-23T12:13:17;7.57;;;3.70;;
21309;SDS011;10814;51.722;8.772;2024-03-23T12:15:50;6.93;;;3.30;;
21309;SDS011;10814;51.722;8.772;2024-03-23T12:18:16;9.80;;;3.55;;
21309;SDS011;10814;51.722;8.772;2024-03-23T12:20:43;9.20;;;4.20;;
21309;SDS011;10814;51.722;8.772;2024-03-23T12:23:10;6.93;;;3.80;;
21309;SDS011;10814;51.722;8.772;2024-03-23T12:25:37;7.55;;;4.07;;
21309;SDS011;10814;51.722;8.772;2024-03-23T12:28:04;6.95;;;3.72;;
21309;SDS011;10814;51.722;8.772;2024-03-23T12:30:31;9.32;;;4.38;;
21309;SDS011;10814;51.722;8.772;2024-03-23T12:33:01;7.80;;;4.22;;
21309;SDS011;10814;51.722;8.772;2024-03-23T12:35:28;8.15;;;4.18;;
21309;SDS011;10814;51.722;8.772;2024-03-23T12:37:54;8.32;;;4.25;;
21309;SDS011;10814;51.722;8.772;2024-03-23T12:40:19;7.75;;;3.95;;
21309;SDS011;10814;51.722;8.772;2024-03-23T12:42:45;7.78;;;3.80;;
21309;SDS011;10814;51.722;8.772;2024-03-23T12:45:11;8.73;;;4.13;;
21309;SDS011;10814;51.722;8.772;2024-03-23T12:47:36;10.68;;;4.35;;
21309;SDS011;10814;51.722;8.772;2024-03-23T12:50:02;5.93;;;3.55;;
21309;SDS011;10814;51.722;8.772;2024-03-23T12:52:28;6.35;;;2.13;;
21309;SDS011;10814;51.722;8.772;2024-03-23T12:54:57;6.05;;;1.90;;
21309;SDS011;10814;51.722;8.772;2024-03-23T12:57:23;4.07;;;1.50;;
21309;SDS011;10814;51.722;8.772;2024-03-23T12:59:50;4.03;;;1.50;;
21309;SDS011;10814;51.722;8.772;2024-03-23T13:02:21;4.65;;;1.40;;
21309;SDS011;10814;51.722;8.772;2024-03-23T13:04:50;3.33;;;1.45;;
21309;SDS011;10814;51.722;8.772;2024-03-23T13:07:19;3.20;;;1.10;;
21309;SDS011;10814;51.722;8.772;2024-03-23T13:09:46;4.97;;;1.20;;
21309;SDS011;10814;51.722;8.772;2024-03-23T13:12:14;4.85;;;1.42;;
21309;SDS011;10814;51.722;8.772;2024-03-23T13:14:40;5.45;;;1.65;;
21309;SDS011;10814;51.722;8.772;2024-03-23T13:17:06;4.25;;;1.50;;
21309;SDS011;10814;51.722;8.772;2024-03-23T13:19:32;4.18;;;1.52;;
21309;SDS011;10814;51.722;8.772;2024-03-23T13:21:58;3.90;;;1.52;;
21309;SDS011;10814;51.722;8.772;2024-03-23T13:24:25;6.03;;;1.52;;
21309;SDS011;10814;51.722;8.772;2024-03-23T13:26:51;3.58;;;1.50;;
21309;SDS011;10814;51.722;8.772;2024-03-23T13:29:18;4.25;;;1.30;;
21309;SDS011;10814;51.722;8.772;2024-03-23T13:31:44;2.30;;;0.90;;
21309;SDS011;10814;51.722;8.772;2024-03-23T13:34:14;3.85;;;1.20;;
21309;SDS011;10814;51.722;8.772;2024-03-23T13:36:40;2.60;;;1.10;;
21309;SDS011;10814;51.722;8.772;2024-03-23T13:39:06;4.50;;;1.15;;
21309;SDS011;10814;51.722;8.772;2024-03-23T13:41:36;2.63;;;1.13;;
21309;SDS011;10814;51.722;8.772;2024-03-23T13:44:11;3.17;;;1.42;;
21309;SDS011;10814;51.722;8.772;2024-03-23T13:46:38;5.78;;;1.75;;
21309;SDS011;10814;51.722;8.772;2024-03-23T13:49:07;6.88;;;3.50;;
21309;SDS011;10814;51.722;8.772;2024-03-23T13:51:32;27.45;;;17.75;;
21309;SDS011;10814;51.722;8.772;2024-03-23T13:53:58;16.45;;;9.45;;
21309;SDS011;10814;51.722;8.772;2024-03-23T13:56:29;33.88;;;22.20;;
21309;SDS011;10814;51.722;8.772;2024-03-23T13:58:55;19.38;;;12.20;;
21309;SDS011;10814;51.722;8.772;2024-03-23T14:01:21;9.82;;;4.28;;
21309;SDS011;10814;51.722;8.772;2024-03-23T14:03:47;8.70;;;4.32;;
21309;SDS011;10814;51.722;8.772;2024-03-23T14:06:13;8.70;;;4.43;;
21309;SDS011;10814;51.722;8.772;2024-03-23T14:08:39;6.63;;;2.90;;
21309;SDS011;10814;51.722;8.772;2024-03-23T14:11:05;4.53;;;2.08;;
21309;SDS011;10814;51.722;8.772;2024-03-23T14:13:31;5.43;;;1.90;;
21309;SDS011;10814;51.722;8.772;2024-03-23T14:15:57;5.95;;;3.28;;
21309;SDS011;10814;51.722;8.772;2024-03-23T14:18:23;6.00;;;2.53;;
21309;SDS011;10814;51.722;8.772;2024-03-23T14:20:49;5.28;;;2.28;;
21309;SDS011;10814;51.722;8.772;2024-03-23T14:23:15;7.82;;;2.63;;
21309;SDS011;10814;51.722;8.772;2024-03-23T14:25:41;4.93;;;1.70;;
21309;SDS011;10814;51.722;8.772;2024-03-23T14:28:07;6.10;;;1.60;;
21309;SDS011;10814;51.722;8.772;2024-03-23T14:30:39;5.03;;;1.60;;
21309;SDS011;10814;51.722;8.772;2024-03-23T14:33:08;4.70;;;1.58;;
21309;SDS011;10814;51.722;8.772;2024-03-23T14:35:34;3.15;;;1.48;;
21309;SDS011;10814;51.722;8.772;2024-03-23T14:38:00;3.67;;;1.35;;
21309;SDS011;10814;51.722;8.772;2024-03-23T14:40:25;2.65;;;1.13;;
21309;SDS011;10814;51.722;8.772;2024-03-23T14:42:54;3.90;;;1.17;;
21309;SDS011;10814;51.722;8.772;2024-03-23T14:45:23;2.00;;;1.05;;
21309;SDS011;10814;51.722;8.772;2024-03-23T14:47:50;1.73;;;0.90;;
21309;SDS011;10814;51.722;8.772;2024-03-23T14:50:16;4.75;;;1.10;;
21309;SDS011;10814;51.722;8.772;2024-03-23T14:52:43;1.48;;;0.90;;
21309;SDS011;10814;51.722;8.772;2024-03-23T14:55:12;4.15;;;1.52;;
21309;SDS011;10814;51.722;8.772;2024-03-23T14:57:38;1.13;;;0.77;;
21309;SDS011;10814;51.722;8.772;2024-03-23T15:00:08;4.85;;;1.20;;
21309;SDS011;10814;51.722;8.772;2024-03-23T15:02:39;3.60;;;1.48;;
21309;SDS011;10814;51.722;8.772;2024-03-23T15:05:05;4.97;;;1.50;;
21309;SDS011;10814;51.722;8.772;2024-03-23T15:07:34;5.68;;;1.77;;
21309;SDS011;10814;51.722;8.772;2024-03-23T15:10:03;8.98;;;2.28;;
21309;SDS011;10814;51.722;8.772;2024-03-23T15:12:30;5.60;;;2.08;;
21309;SDS011;10814;51.722;8.772;2024-03-23T15:14:58;6.00;;;2.50;;
21309;SDS011;10814;51.722;8.772;2024-03-23T15:17:24;4.53;;;2.08;;
21309;SDS011;10814;51.722;8.772;2024-03-23T15:19:50;4.32;;;2.15;;
21309;SDS011;10814;51.722;8.772;2024-03-23T15:22:16;3.28;;;1.30;;
21309;SDS011;10814;51.722;8.772;2024-03-23T15:24:41;2.53;;;1.20;;
21309;SDS011;10814;51.722;8.772;2024-03-23T15:27:07;2.92;;;1.70;;
21309;SDS011;10814;51.722;8.772;2024-03-23T15:29:34;3.20;;;1.30;;
21309;SDS011;10814;51.722;8.772;2024-03-23T15:32:00;2.95;;;1.60;;
21309;SDS011;10814;51.722;8.772;2024-03-23T15:34:26;3.70;;;1.77;;
21309;SDS011;10814;51.722;8.772;2024-03-23T15:36:52;4.53;;;2.00;;
21309;SDS011;10814;51.722;8.772;2024-03-23T15:39:17;3.40;;;1.60;;
21309;SDS011;10814;51.722;8.772;2024-03-23T15:41:44;4.65;;;1.70;;
21309;SDS011;10814;51.722;8.772;2024-03-23T15:44:10;6.88;;;3.13;;
21309;SDS011;10814;51.722;8.772;2024-03-23T15:46:36;3.05;;;1.58;;
21309;SDS011;10814;51.722;8.772;2024-03-23T15:49:01;5.03;;;1.52;;
21309;SDS011;10814;51.722;8.772;2024-03-23T15:51:27;2.58;;;1.17;;
21309;SDS011;10814;51.722;8.772;2024-03-23T15:53:57;3.47;;;1.40;;
21309;SDS011;10814;51.722;8.772;2024-03-23T15:56:26;3.92;;;1.52;;
21309;SDS011;10814;51.722;8.772;2024-03-23T15:58:54;5.53;;;1.95;;
21309;SDS011;10814;51.722;8.772;2024-03-23T16:01:19;5.13;;;1.60;;
21309;SDS011;10814;51.722;8.772;2024-03-23T16:03:45;6.68;;;1.40;;
21309;SDS011;10814;51.722;8.772;2024-03-23T16:06:20;5.13;;;1.58;;